createdAt,value
2023-11-14T00:00:44.579Z,0
2023-11-14T00:01:59.795Z,0
2023-11-14T00:03:34.000Z,0
2023-11-14T00:04:50.000Z,0
2023-11-14T00:06:06.000Z,0
2023-11-14T00:07:22.577Z,0
2023-11-14T00:08:38.000Z,0
2023-11-14T00:09:54.000Z,0
2023-11-14T00:11:11.148Z,0
2023-11-14T00:12:09.357Z,0
2023-11-14T00:13:43.000Z,0
2023-11-14T00:14:41.747Z,0
2023-11-14T00:16:14.000Z,0
2023-11-14T00:17:30.000Z,0
2023-11-14T00:18:46.000Z,0
2023-11-14T00:19:43.598Z,0
2023-11-14T00:21:17.793Z,0
2023-11-14T00:22:15.988Z,0
2023-11-14T00:23:50.168Z,0
2023-11-14T00:25:06.000Z,0
2023-11-14T00:26:22.000Z,0
2023-11-14T00:27:38.000Z,0
2023-11-14T00:28:54.000Z,0
2023-11-14T00:30:11.159Z,0
2023-11-14T00:31:27.000Z,0
2023-11-14T00:32:25.550Z,0
2023-11-14T00:33:59.000Z,0
2023-11-14T00:34:57.940Z,0
2023-11-14T00:36:32.000Z,0
2023-11-14T00:37:47.347Z,0
2023-11-14T00:39:03.000Z,0
2023-11-14T00:40:01.737Z,0
2023-11-14T00:41:35.000Z,0
2023-11-14T00:42:51.000Z,0
2023-11-14T00:44:07.000Z,0
2023-11-14T00:45:22.000Z,0
2023-11-14T00:46:20.756Z,0
2023-11-14T00:47:36.951Z,0
2023-11-14T00:49:11.000Z,0
2023-11-14T00:50:27.000Z,0
2023-11-14T00:51:43.000Z,0
2023-11-14T00:52:41.732Z,0
2023-11-14T00:54:15.000Z,0
2023-11-14T00:55:32.000Z,0
2023-11-14T00:56:48.000Z,0
2023-11-14T00:57:46.513Z,0
2023-11-14T00:59:20.000Z,0
2023-11-14T01:00:36.896Z,0
2023-11-14T01:01:53.000Z,0
2023-11-14T01:02:50.309Z,0
2023-11-14T01:04:24.493Z,0
2023-11-14T01:05:40.000Z,0
2023-11-14T01:06:56.000Z,0
2023-11-14T01:08:12.000Z,0
2023-11-14T01:09:28.000Z,0
2023-11-14T01:10:25.524Z,0
2023-11-14T01:11:59.711Z,0
2023-11-14T01:12:57.915Z,0
2023-11-14T01:14:32.000Z,0
2023-11-14T01:16:01.000Z,0
2023-11-14T01:17:04.000Z,0
2023-11-14T01:18:20.000Z,0
2023-11-14T01:19:36.000Z,0
2023-11-14T01:20:53.000Z,0
2023-11-14T01:22:09.000Z,0
2023-11-14T01:23:25.000Z,0
2023-11-14T01:24:23.673Z,0
2023-11-14T01:25:57.858Z,0
2023-11-14T01:27:14.000Z,0
2023-11-14T01:28:30.000Z,0
2023-11-14T01:29:46.454Z,0
2023-11-14T01:30:44.649Z,0
2023-11-14T01:32:17.000Z,0
2023-11-14T01:33:33.000Z,0
2023-11-14T01:34:49.000Z,0
2023-11-14T01:35:46.489Z,0
2023-11-14T01:37:20.000Z,0
2023-11-14T01:38:18.880Z,0
2023-11-14T01:39:53.000Z,0
2023-11-14T01:41:09.000Z,0
2023-11-14T01:42:25.456Z,0
2023-11-14T01:43:23.661Z,0
2023-11-14T01:44:57.000Z,0
2023-11-14T01:46:14.000Z,0
2023-11-14T01:47:30.242Z,0
2023-11-14T01:48:46.000Z,0
2023-11-14T01:50:02.641Z,0
2023-11-14T01:51:18.824Z,0
2023-11-14T01:52:35.000Z,0
2023-11-14T01:53:51.000Z,0
2023-11-14T01:55:07.000Z,0
2023-11-14T01:56:05.617Z,0
2023-11-14T01:57:39.000Z,0
2023-11-14T01:58:55.000Z,0
2023-11-14T02:00:11.000Z,0
2023-11-14T02:01:26.443Z,0
2023-11-14T02:02:42.000Z,0
2023-11-14T02:03:58.819Z,0
2023-11-14T02:05:15.020Z,0
2023-11-14T02:06:31.224Z,0
2023-11-14T02:07:47.000Z,0
2023-11-14T02:08:45.615Z,0
2023-11-14T02:10:19.000Z,0
2023-11-14T02:11:36.000Z,0
2023-11-14T02:12:52.193Z,0
2023-11-14T02:14:08.398Z,0
2023-11-14T02:15:24.000Z,0
2023-11-14T02:16:40.787Z,0
2023-11-14T02:17:56.001Z,0
2023-11-14T02:19:12.000Z,0
2023-11-14T02:20:28.385Z,0
2023-11-14T02:21:44.573Z,0
2023-11-14T02:23:00.000Z,0
2023-11-14T02:24:16.978Z,0
2023-11-14T02:25:33.173Z,0
2023-11-14T02:26:49.373Z,0
2023-11-14T02:28:05.565Z,0
2023-11-14T02:29:21.762Z,0
2023-11-14T02:30:37.000Z,0
2023-11-14T02:31:54.000Z,0
2023-11-14T02:33:23.000Z,0
2023-11-14T02:34:26.000Z,0
2023-11-14T02:35:41.000Z,0
2023-11-14T02:36:57.959Z,0
2023-11-14T02:38:14.154Z,0
2023-11-14T02:39:30.000Z,0
2023-11-14T02:40:46.000Z,0
2023-11-14T02:42:02.733Z,0
2023-11-14T02:43:18.000Z,0
2023-11-14T02:44:35.000Z,0
2023-11-14T02:45:51.000Z,0
2023-11-14T02:46:49.520Z,0
2023-11-14T02:48:23.000Z,0
2023-11-14T02:49:39.912Z,0
2023-11-14T02:50:56.108Z,0
2023-11-14T02:52:12.000Z,0
2023-11-14T02:53:28.000Z,0
2023-11-14T02:54:44.695Z,0
2023-11-14T02:56:00.000Z,0
2023-11-14T02:57:17.086Z,0
2023-11-14T02:58:33.000Z,0
2023-11-14T02:59:49.000Z,0
2023-11-14T03:01:05.674Z,0
2023-11-14T03:02:21.868Z,0
2023-11-14T03:03:38.000Z,0
2023-11-14T03:04:54.000Z,0
2023-11-14T03:06:10.000Z,0
2023-11-14T03:07:26.709Z,0
2023-11-14T03:08:42.000Z,0
2023-11-14T03:09:59.217Z,0
2023-11-14T03:11:15.466Z,0
2023-11-14T03:12:31.000Z,0
2023-11-14T03:13:29.968Z,0
2023-11-14T03:15:04.311Z,0
2023-11-14T03:16:20.000Z,0
2023-11-14T03:17:36.702Z,0
2023-11-14T03:18:52.897Z,0
2023-11-14T03:20:09.000Z,0
2023-11-14T03:21:25.289Z,0
2023-11-14T03:22:41.000Z,0
2023-11-14T03:23:57.000Z,0
2023-11-14T03:25:13.000Z,0
2023-11-14T03:26:30.070Z,0
2023-11-14T03:27:46.252Z,0
2023-11-14T03:29:02.462Z,0
2023-11-14T03:30:18.000Z,0
2023-11-14T03:31:34.852Z,0
2023-11-14T03:32:51.000Z,0
2023-11-14T03:34:07.244Z,0
2023-11-14T03:35:23.438Z,0
2023-11-14T03:36:39.635Z,0
2023-11-14T03:37:55.000Z,0
2023-11-14T03:39:12.026Z,0
2023-11-14T03:40:28.000Z,0
2023-11-14T03:41:44.417Z,0
2023-11-14T03:43:00.612Z,0
2023-11-14T03:44:16.000Z,0
2023-11-14T03:45:14.029Z,0
2023-11-14T03:46:47.000Z,0
2023-11-14T03:47:45.436Z,0
2023-11-14T03:49:19.000Z,0
2023-11-14T03:50:35.000Z,0
2023-11-14T03:51:52.000Z,0
2023-11-14T03:53:08.216Z,0
2023-11-14T03:54:24.415Z,0
2023-11-14T03:55:40.000Z,0
2023-11-14T03:56:56.805Z,0
2023-11-14T03:57:55.000Z,0
2023-11-14T03:59:29.000Z,0
2023-11-14T04:00:27.391Z,0
2023-11-14T04:02:01.000Z,0
2023-11-14T04:03:17.000Z,0
2023-11-14T04:04:33.977Z,0
2023-11-14T04:05:50.000Z,0
2023-11-14T04:07:06.000Z,0
2023-11-14T04:08:21.579Z,0
2023-11-14T04:09:37.775Z,0
2023-11-14T04:10:53.000Z,0
2023-11-14T04:12:10.000Z,0
2023-11-14T04:13:08.362Z,0
2023-11-14T04:14:42.557Z,0
2023-11-14T04:15:40.752Z,0
2023-11-14T04:17:14.000Z,0
2023-11-14T04:18:31.144Z,0
2023-11-14T04:19:47.000Z,0
2023-11-14T04:21:02.570Z,0
2023-11-14T04:22:18.000Z,0
2023-11-14T04:23:34.000Z,0
2023-11-14T04:24:51.158Z,0
2023-11-14T04:26:07.000Z,0
2023-11-14T04:27:23.000Z,0
2023-11-14T04:28:39.739Z,0
2023-11-14T04:29:54.000Z,0
2023-11-14T04:31:11.140Z,0
2023-11-14T04:32:27.000Z,0
2023-11-14T04:33:43.000Z,0
2023-11-14T04:34:59.000Z,0
2023-11-14T04:36:15.000Z,0
2023-11-14T04:37:32.000Z,0
2023-11-14T04:38:30.325Z,0
2023-11-14T04:40:04.000Z,0
2023-11-14T04:41:20.717Z,0
2023-11-14T04:42:36.000Z,0
2023-11-14T04:43:53.097Z,0
2023-11-14T04:45:09.000Z,0
2023-11-14T04:46:24.000Z,0
2023-11-14T04:47:40.721Z,0
2023-11-14T04:48:56.000Z,0
2023-11-14T04:50:13.113Z,0
2023-11-14T04:51:11.308Z,0
2023-11-14T04:52:45.000Z,0
2023-11-14T04:53:42.715Z,0
2023-11-14T04:55:16.000Z,0
2023-11-14T04:56:33.101Z,0
2023-11-14T04:57:49.000Z,0
2023-11-14T04:59:05.497Z,0
2023-11-14T05:00:21.679Z,0
2023-11-14T05:01:19.887Z,0
2023-11-14T05:02:54.000Z,0
2023-11-14T05:04:10.000Z,0
2023-11-14T05:05:26.000Z,0
2023-11-14T05:06:42.670Z,0
2023-11-14T05:07:58.000Z,0
2023-11-14T05:09:15.000Z,0
2023-11-14T05:10:30.274Z,0
2023-11-14T05:11:46.000Z,0
2023-11-14T05:13:02.000Z,0
2023-11-14T05:13:59.886Z,0
2023-11-14T05:15:34.082Z,0
2023-11-14T05:16:50.276Z,0
2023-11-14T05:18:06.000Z,0
2023-11-14T05:19:04.668Z,0
2023-11-14T05:20:38.000Z,0
2023-11-14T05:21:54.063Z,0
2023-11-14T05:23:10.000Z,0
2023-11-14T05:24:26.465Z,0
2023-11-14T05:25:24.661Z,0
2023-11-14T05:26:40.856Z,0
2023-11-14T05:28:15.000Z,0
2023-11-14T05:29:31.000Z,0
2023-11-14T05:30:47.000Z,0
2023-11-14T05:32:03.637Z,0
2023-11-14T05:33:19.000Z,0
2023-11-14T05:34:18.028Z,0
2023-11-14T05:35:52.223Z,0
2023-11-14T05:37:08.418Z,0
2023-11-14T05:38:24.000Z,0
2023-11-14T05:39:21.825Z,0
2023-11-14T05:40:56.021Z,0
2023-11-14T05:41:54.217Z,0
2023-11-14T05:43:28.000Z,0
2023-11-14T05:44:44.607Z,0
2023-11-14T05:46:00.000Z,0
2023-11-14T05:47:16.997Z,0
2023-11-14T05:48:33.000Z,0
2023-11-14T05:49:49.388Z,0
2023-11-14T05:51:05.000Z,0
2023-11-14T05:52:21.778Z,0
2023-11-14T05:53:37.000Z,0
2023-11-14T05:54:36.170Z,0
2023-11-14T05:56:09.000Z,0
2023-11-14T05:57:07.577Z,0
2023-11-14T05:58:41.000Z,0
2023-11-14T05:59:39.967Z,0
2023-11-14T06:01:14.000Z,0
2023-11-14T06:02:30.000Z,0
2023-11-14T06:03:46.000Z,0
2023-11-14T06:04:44.750Z,0
2023-11-14T06:06:18.000Z,0
2023-11-14T06:07:35.000Z,0
2023-11-14T06:08:51.326Z,0
2023-11-14T06:09:49.532Z,0
2023-11-14T06:11:23.000Z,0
2023-11-14T06:12:21.922Z,0
2023-11-14T06:13:55.000Z,0
2023-11-14T06:15:11.330Z,0
2023-11-14T06:16:27.000Z,0
2023-11-14T06:17:43.720Z,0
2023-11-14T06:18:59.000Z,0
2023-11-14T06:19:58.111Z,0
2023-11-14T06:21:32.000Z,0
2023-11-14T06:22:30.501Z,0
2023-11-14T06:24:04.684Z,0
2023-11-14T06:25:02.892Z,0
2023-11-14T06:26:37.000Z,0
2023-11-14T06:27:53.283Z,0
2023-11-14T06:29:09.479Z,0
2023-11-14T06:30:25.674Z,0
2023-11-14T06:31:41.000Z,0
2023-11-14T06:32:57.000Z,0
2023-11-14T06:34:13.000Z,0
2023-11-14T06:35:11.472Z,0
2023-11-14T06:36:45.000Z,0
2023-11-14T06:37:43.864Z,0
2023-11-14T06:39:18.000Z,0
2023-11-14T06:40:34.000Z,0
2023-11-14T06:41:50.000Z,0
2023-11-14T06:43:06.000Z,0
2023-11-14T06:44:22.000Z,5
2023-11-14T06:45:21.036Z,5
2023-11-14T06:46:55.000Z,5
2023-11-14T06:48:11.000Z,5
2023-11-14T06:49:27.000Z,5
2023-11-14T06:50:24.828Z,5
2023-11-14T06:51:59.000Z,5
2023-11-14T06:53:15.000Z,5
2023-11-14T06:54:31.000Z,5
2023-11-14T06:55:29.601Z,5
2023-11-14T06:57:03.000Z,5
2023-11-14T06:58:20.000Z,5
2023-11-14T06:59:36.000Z,11
2023-11-14T07:00:34.374Z,11
2023-11-14T07:02:08.000Z,11
2023-11-14T07:03:06.760Z,5
2023-11-14T07:04:40.000Z,5
2023-11-14T07:05:57.147Z,5
2023-11-14T07:07:13.000Z,5
2023-11-14T07:08:28.000Z,11
2023-11-14T07:09:44.000Z,11
2023-11-14T07:11:00.000Z,11
2023-11-14T07:12:17.000Z,11
2023-11-14T07:13:33.000Z,16
2023-11-14T07:14:49.000Z,16
2023-11-14T07:15:47.711Z,16
2023-11-14T07:17:21.000Z,16
2023-11-14T07:18:38.000Z,16
2023-11-14T07:19:54.000Z,16
2023-11-14T07:21:10.000Z,22
2023-11-14T07:22:26.000Z,22
2023-11-14T07:23:42.000Z,22
2023-11-14T07:24:59.000Z,33
2023-11-14T07:26:14.000Z,39
2023-11-14T07:27:30.000Z,39
2023-11-14T07:28:28.661Z,45
2023-11-14T07:30:02.000Z,45
2023-11-14T07:31:19.000Z,50
2023-11-14T07:32:35.240Z,50
2023-11-14T07:33:51.000Z,56
2023-11-14T07:35:07.000Z,56
2023-11-14T07:36:05.820Z,56
2023-11-14T07:37:40.000Z,50
2023-11-14T07:38:56.198Z,45
2023-11-14T07:40:12.000Z,45
2023-11-14T07:41:10.593Z,39
2023-11-14T07:42:43.803Z,39
2023-11-14T07:43:59.996Z,39
2023-11-14T07:45:16.000Z,39
2023-11-14T07:46:32.383Z,39
2023-11-14T07:47:48.000Z,33
2023-11-14T07:49:04.000Z,39
2023-11-14T07:50:20.000Z,45
2023-11-14T07:51:37.156Z,56
2023-11-14T07:52:53.350Z,67
2023-11-14T07:54:09.000Z,50
2023-11-14T07:55:25.000Z,50
2023-11-14T07:56:41.000Z,56
2023-11-14T07:57:58.000Z,56
2023-11-14T07:59:14.317Z,61
2023-11-14T08:00:30.000Z,61
2023-11-14T08:01:46.703Z,56
2023-11-14T08:03:02.000Z,56
2023-11-14T08:04:18.000Z,45
2023-11-14T08:05:34.000Z,50
2023-11-14T08:06:32.494Z,56
2023-11-14T08:08:06.000Z,61
2023-11-14T08:09:22.881Z,67
2023-11-14T08:10:39.000Z,73
2023-11-14T08:11:37.268Z,78
2023-11-14T08:13:11.000Z,73
2023-11-14T08:14:27.655Z,73
2023-11-14T08:15:43.000Z,67
2023-11-14T08:17:00.042Z,61
2023-11-14T08:18:16.000Z,67
2023-11-14T08:19:14.429Z,61
2023-11-14T08:20:47.000Z,61
2023-11-14T08:22:03.832Z,56
2023-11-14T08:23:20.000Z,56
2023-11-14T08:24:36.000Z,50
2023-11-14T08:25:52.000Z,39
2023-11-14T08:26:50.607Z,39
2023-11-14T08:28:24.000Z,39
2023-11-14T08:29:40.994Z,45
2023-11-14T08:30:57.000Z,45
2023-11-14T08:32:13.000Z,39
2023-11-14T08:33:29.000Z,39
2023-11-14T08:34:45.000Z,39
2023-11-14T08:36:00.000Z,50
2023-11-14T08:36:59.326Z,50
2023-11-14T08:38:33.000Z,61
2023-11-14T08:39:49.000Z,61
2023-11-14T08:41:05.000Z,61
2023-11-14T08:42:22.000Z,61
2023-11-14T08:43:38.000Z,67
2023-11-14T08:44:54.000Z,61
2023-11-14T08:46:10.000Z,61
2023-11-14T08:47:26.000Z,61
2023-11-14T08:48:43.000Z,56
2023-11-14T08:49:41.265Z,61
2023-11-14T08:51:15.000Z,67
2023-11-14T08:52:12.668Z,73
2023-11-14T08:53:46.000Z,73
2023-11-14T08:55:03.000Z,78
2023-11-14T08:56:19.000Z,78
2023-11-14T08:57:35.000Z,73
2023-11-14T08:58:51.000Z,78
2023-11-14T09:00:07.000Z,84
2023-11-14T09:01:24.000Z,90
2023-11-14T09:02:40.000Z,90
2023-11-14T09:03:56.000Z,78
2023-11-14T09:05:12.000Z,78
2023-11-14T09:06:28.000Z,78
2023-11-14T09:07:45.000Z,84
2023-11-14T09:09:01.000Z,84
2023-11-14T09:10:16.000Z,84
2023-11-14T09:11:32.000Z,78
2023-11-14T09:12:48.000Z,67
2023-11-14T09:14:04.000Z,67
2023-11-14T09:15:21.000Z,61
2023-11-14T09:16:37.000Z,61
2023-11-14T09:17:53.000Z,61
2023-11-14T09:19:09.000Z,67
2023-11-14T09:20:25.000Z,73
2023-11-14T09:21:42.000Z,84
2023-11-14T09:22:58.000Z,90
2023-11-14T09:24:14.000Z,101
2023-11-14T09:25:30.000Z,78
2023-11-14T09:26:45.000Z,73
2023-11-14T09:27:44.124Z,73
2023-11-14T09:29:18.000Z,61
2023-11-14T09:30:34.000Z,61
2023-11-14T09:31:50.000Z,61
2023-11-14T09:33:06.000Z,67
2023-11-14T09:34:23.000Z,73
2023-11-14T09:35:39.287Z,73
2023-11-14T09:36:55.000Z,84
2023-11-14T09:38:11.000Z,95
2023-11-14T09:39:27.000Z,101
2023-11-14T09:40:44.049Z,118
2023-11-14T09:42:00.000Z,112
2023-11-14T09:43:15.000Z,106
2023-11-14T09:44:31.000Z,106
2023-11-14T09:45:29.851Z,101
2023-11-14T09:47:04.000Z,101
2023-11-14T09:48:20.000Z,101
2023-11-14T09:49:36.000Z,101
2023-11-14T09:50:52.000Z,112
2023-11-14T09:52:08.000Z,84
2023-11-14T09:53:07.013Z,84
2023-11-14T09:54:41.000Z,84
2023-11-14T09:55:39.401Z,84
2023-11-14T09:57:13.000Z,90
2023-11-14T09:58:29.000Z,90
2023-11-14T09:59:45.982Z,67
2023-11-14T10:01:02.000Z,50
2023-11-14T10:02:17.386Z,39
2023-11-14T10:03:33.000Z,45
2023-11-14T10:04:49.000Z,45
2023-11-14T10:06:05.000Z,50
2023-11-14T10:07:22.000Z,45
2023-11-14T10:08:38.000Z,39
2023-11-14T10:09:54.000Z,33
2023-11-14T10:11:10.000Z,33
2023-11-14T10:12:26.924Z,39
2023-11-14T10:13:43.119Z,45
2023-11-14T10:14:59.000Z,45
2023-11-14T10:16:15.000Z,45
2023-11-14T10:17:31.000Z,39
2023-11-14T10:18:46.000Z,39
2023-11-14T10:20:03.000Z,39
2023-11-14T10:21:01.305Z,39
2023-11-14T10:22:35.000Z,50
2023-11-14T10:23:51.000Z,67
2023-11-14T10:25:07.000Z,84
2023-11-14T10:26:24.083Z,90
2023-11-14T10:27:40.000Z,95
2023-11-14T10:28:56.000Z,95
2023-11-14T10:30:12.000Z,95
2023-11-14T10:31:10.854Z,101
2023-11-14T10:32:45.047Z,95
2023-11-14T10:34:01.245Z,101
2023-11-14T10:35:17.550Z,101
2023-11-14T10:36:33.000Z,118
2023-11-14T10:37:49.000Z,129
2023-11-14T10:39:06.000Z,151
2023-11-14T10:40:22.000Z,146
2023-11-14T10:41:38.000Z,151
2023-11-14T10:42:54.000Z,151
2023-11-14T10:43:52.946Z,151
2023-11-14T10:45:27.000Z,151
2023-11-14T10:46:43.000Z,146
2023-11-14T10:47:59.000Z,168
2023-11-14T10:49:15.000Z,118
2023-11-14T10:50:31.000Z,106
2023-11-14T10:51:47.000Z,146
2023-11-14T10:53:03.000Z,112
2023-11-14T10:54:19.000Z,112
2023-11-14T10:55:35.000Z,112
2023-11-14T10:56:33.894Z,112
2023-11-14T10:58:08.081Z,106
2023-11-14T10:59:24.000Z,106
2023-11-14T11:00:40.000Z,106
2023-11-14T11:01:56.665Z,101
2023-11-14T11:03:12.000Z,101
2023-11-14T11:04:11.053Z,101
2023-11-14T11:05:45.000Z,95
2023-11-14T11:07:01.000Z,95
2023-11-14T11:08:16.000Z,95
2023-11-14T11:09:32.000Z,95
2023-11-14T11:10:49.000Z,95
2023-11-14T11:12:05.216Z,95
2023-11-14T11:13:21.000Z,90
2023-11-14T11:14:19.613Z,90
2023-11-14T11:15:53.000Z,78
2023-11-14T11:16:51.999Z,73
2023-11-14T11:18:26.192Z,67
2023-11-14T11:19:42.000Z,56
2023-11-14T11:20:58.576Z,56
2023-11-14T11:22:14.769Z,56
2023-11-14T11:23:30.000Z,56
2023-11-14T11:24:28.174Z,61
2023-11-14T11:26:02.000Z,61
2023-11-14T11:27:18.000Z,61
2023-11-14T11:28:34.000Z,61
2023-11-14T11:29:32.947Z,61
2023-11-14T11:31:07.140Z,67
2023-11-14T11:32:23.000Z,67
2023-11-14T11:33:39.000Z,61
2023-11-14T11:34:55.000Z,67
2023-11-14T11:36:11.000Z,73
2023-11-14T11:37:10.107Z,78
2023-11-14T11:38:44.000Z,78
2023-11-14T11:40:00.000Z,78
2023-11-14T11:41:15.000Z,73
2023-11-14T11:42:13.895Z,56
2023-11-14T11:43:48.000Z,39
2023-11-14T11:45:04.000Z,28
2023-11-14T11:46:02.474Z,33
2023-11-14T11:47:18.667Z,39
2023-11-14T11:48:52.000Z,45
2023-11-14T11:49:51.053Z,50
2023-11-14T11:51:25.000Z,56
2023-11-14T11:52:41.000Z,61
2023-11-14T11:53:57.000Z,61
2023-11-14T11:54:55.826Z,61
2023-11-14T11:56:30.000Z,61
2023-11-14T11:57:45.000Z,61
2023-11-14T11:59:01.000Z,67
2023-11-14T12:00:17.000Z,78
2023-11-14T12:01:33.000Z,78
2023-11-14T12:02:32.002Z,78
2023-11-14T12:04:06.000Z,84
2023-11-14T12:05:22.000Z,84
2023-11-14T12:06:38.000Z,84
2023-11-14T12:07:54.000Z,84
2023-11-14T12:09:10.969Z,78
2023-11-14T12:10:27.000Z,73
2023-11-14T12:11:43.000Z,73
2023-11-14T12:12:41.549Z,67
2023-11-14T12:14:14.756Z,67
2023-11-14T12:15:12.952Z,61
2023-11-14T12:16:47.000Z,67
2023-11-14T12:18:03.332Z,61
2023-11-14T12:19:19.000Z,61
2023-11-14T12:20:35.000Z,67
2023-11-14T12:21:51.000Z,67
2023-11-14T12:23:08.000Z,61
2023-11-14T12:24:24.000Z,61
2023-11-14T12:25:40.000Z,67
2023-11-14T12:26:56.000Z,73
2023-11-14T12:27:54.882Z,78
2023-11-14T12:29:29.000Z,84
2023-11-14T12:30:44.000Z,84
2023-11-14T12:32:00.000Z,84
2023-11-14T12:32:58.671Z,78
2023-11-14T12:34:32.000Z,73
2023-11-14T12:35:49.000Z,61
2023-11-14T12:37:05.000Z,61
2023-11-14T12:38:21.000Z,61
2023-11-14T12:39:37.000Z,67
2023-11-14T12:40:35.832Z,73
2023-11-14T12:42:10.020Z,84
2023-11-14T12:43:26.000Z,95
2023-11-14T12:44:42.000Z,95
2023-11-14T12:45:40.606Z,106
2023-11-14T12:47:13.000Z,101
2023-11-14T12:48:30.000Z,90
2023-11-14T12:49:46.000Z,78
2023-11-14T12:51:01.000Z,56
2023-11-14T12:52:17.603Z,45
2023-11-14T12:53:33.000Z,28
2023-11-14T12:54:50.000Z,22
2023-11-14T12:56:06.000Z,16
2023-11-14T12:57:22.000Z,16
2023-11-14T12:58:20.579Z,16
2023-11-14T12:59:54.773Z,16
2023-11-14T13:01:10.000Z,22
2023-11-14T13:02:27.000Z,22
2023-11-14T13:03:43.000Z,33
2023-11-14T13:04:59.000Z,61
2023-11-14T13:06:15.736Z,101
2023-11-14T13:07:31.000Z,78
2023-11-14T13:08:47.000Z,73
2023-11-14T13:10:03.000Z,67
2023-11-14T13:11:19.000Z,73
2023-11-14T13:12:35.000Z,67
2023-11-14T13:13:51.919Z,67
2023-11-14T13:15:08.000Z,61
2023-11-14T13:16:24.000Z,61
2023-11-14T13:17:40.000Z,56
2023-11-14T13:18:56.000Z,50
2023-11-14T13:20:12.000Z,45
2023-11-14T13:21:29.000Z,39
2023-11-14T13:22:45.000Z,39
2023-11-14T13:24:01.466Z,39
2023-11-14T13:25:16.000Z,45
2023-11-14T13:26:32.000Z,50
2023-11-14T13:27:49.000Z,67
2023-11-14T13:28:47.256Z,84
2023-11-14T13:30:21.000Z,84
2023-11-14T13:31:37.000Z,90
2023-11-14T13:32:53.000Z,84
2023-11-14T13:34:10.000Z,84
2023-11-14T13:35:26.000Z,78
2023-11-14T13:36:42.000Z,84
2023-11-14T13:37:58.000Z,67
2023-11-14T13:39:14.000Z,61
2023-11-14T13:40:31.000Z,61
2023-11-14T13:41:28.208Z,61
2023-11-14T13:43:02.000Z,56
2023-11-14T13:44:18.000Z,56
2023-11-14T13:45:34.000Z,50
2023-11-14T13:46:50.000Z,45
2023-11-14T13:48:07.000Z,50
2023-11-14T13:49:23.000Z,45
2023-11-14T13:50:39.000Z,45
2023-11-14T13:51:55.000Z,50
2023-11-14T13:53:11.000Z,50
2023-11-14T13:54:28.000Z,56
2023-11-14T13:55:44.000Z,61
2023-11-14T13:57:00.000Z,56
2023-11-14T13:58:15.000Z,56
2023-11-14T13:59:31.000Z,50
2023-11-14T14:00:48.000Z,39
2023-11-14T14:02:04.000Z,33
2023-11-14T14:03:20.000Z,28
2023-11-14T14:04:36.000Z,22
2023-11-14T14:05:52.000Z,22
2023-11-14T14:07:09.000Z,16
2023-11-14T14:08:25.281Z,11
2023-11-14T14:09:23.481Z,11
2023-11-14T14:10:57.000Z,11
2023-11-14T14:12:13.000Z,11
2023-11-14T14:13:30.000Z,11
2023-11-14T14:14:45.000Z,11
2023-11-14T14:16:01.000Z,11
2023-11-14T14:17:17.000Z,11
2023-11-14T14:18:33.000Z,11
2023-11-14T14:19:32.045Z,11
2023-11-14T14:21:06.000Z,11
2023-11-14T14:22:22.000Z,11
2023-11-14T14:23:38.000Z,11
2023-11-14T14:24:54.000Z,11
2023-11-14T14:26:11.000Z,11
2023-11-14T14:27:27.000Z,11
2023-11-14T14:28:43.000Z,11
2023-11-14T14:29:59.000Z,11
2023-11-14T14:31:14.000Z,11
2023-11-14T14:32:31.000Z,5
2023-11-14T14:33:47.000Z,5
2023-11-14T14:35:03.382Z,5
2023-11-14T14:36:19.000Z,5
2023-11-14T14:37:35.000Z,5
2023-11-14T14:38:51.000Z,5
2023-11-14T14:40:08.000Z,5
2023-11-14T14:41:24.000Z,5
2023-11-14T14:42:40.000Z,0
2023-11-14T14:43:56.000Z,0
2023-11-14T14:45:12.000Z,0
2023-11-14T14:46:29.000Z,0
2023-11-14T14:47:45.000Z,0
2023-11-14T14:49:00.000Z,0
2023-11-14T14:50:16.000Z,5
2023-11-14T14:51:32.000Z,5
2023-11-14T14:52:49.000Z,5
2023-11-14T14:54:05.000Z,5
2023-11-14T14:55:21.000Z,5
2023-11-14T14:56:37.000Z,5
2023-11-14T14:57:35.886Z,5
2023-11-14T14:59:10.000Z,5
2023-11-14T15:00:08.273Z,0
2023-11-14T15:01:42.457Z,0
2023-11-14T15:02:58.000Z,0
2023-11-14T15:04:14.000Z,0
2023-11-14T15:05:30.000Z,0
2023-11-14T15:06:46.000Z,0
2023-11-14T15:08:02.000Z,0
2023-11-14T15:09:18.000Z,0
2023-11-14T15:10:34.000Z,0
2023-11-14T15:11:51.000Z,0
2023-11-14T15:13:07.000Z,0
2023-11-14T15:14:23.000Z,0
2023-11-14T15:15:39.000Z,0
2023-11-14T15:16:55.000Z,0
2023-11-14T15:18:12.000Z,0
2023-11-14T15:19:28.192Z,0
2023-11-14T15:20:44.386Z,0
2023-11-14T15:22:00.000Z,0
2023-11-14T15:22:58.772Z,0
2023-11-14T15:24:32.000Z,0
2023-11-14T15:25:49.000Z,0
2023-11-14T15:27:05.000Z,0
2023-11-14T15:28:21.000Z,0
2023-11-14T15:29:37.000Z,0
2023-11-14T15:30:35.933Z,0
2023-11-14T15:32:10.000Z,0
2023-11-14T15:33:26.319Z,0
2023-11-14T15:34:42.000Z,0
2023-11-14T15:35:57.000Z,0
2023-11-14T15:37:13.000Z,0
2023-11-14T15:38:43.000Z,0
2023-11-14T15:39:28.302Z,0
2023-11-14T15:41:02.000Z,0
2023-11-14T15:42:18.678Z,0
2023-11-14T15:43:16.881Z,0
2023-11-14T15:44:51.000Z,0
2023-11-14T15:46:07.000Z,0
2023-11-14T15:47:23.000Z,0
2023-11-14T15:48:21.654Z,0
2023-11-14T15:49:55.000Z,0
2023-11-14T15:50:54.040Z,0
2023-11-14T15:52:27.000Z,0
2023-11-14T15:53:43.443Z,0
2023-11-14T15:54:59.000Z,0
2023-11-14T15:55:57.829Z,0
2023-11-14T15:57:32.000Z,0
2023-11-14T15:58:48.215Z,0
2023-11-14T16:00:04.000Z,0
2023-11-14T16:01:20.000Z,0
2023-11-14T16:02:36.000Z,0
2023-11-14T16:03:52.000Z,0
2023-11-14T16:05:09.183Z,0
2023-11-14T16:06:25.377Z,0
2023-11-14T16:07:41.000Z,0
2023-11-14T16:08:57.000Z,0
2023-11-14T16:10:13.000Z,0
2023-11-14T16:11:29.000Z,0
2023-11-14T16:12:45.000Z,0
2023-11-14T16:14:01.000Z,0
2023-11-14T16:15:17.000Z,0
2023-11-14T16:16:33.000Z,0
2023-11-14T16:17:50.000Z,0
2023-11-14T16:19:06.000Z,0
2023-11-14T16:20:22.000Z,0
2023-11-14T16:21:38.000Z,0
2023-11-14T16:22:54.000Z,0
2023-11-14T16:24:11.000Z,0
2023-11-14T16:25:27.000Z,0
2023-11-14T16:26:43.491Z,0
2023-11-14T16:27:58.000Z,0
2023-11-14T16:29:14.000Z,0
2023-11-14T16:30:31.000Z,0
2023-11-14T16:31:47.000Z,0
2023-11-14T16:33:03.483Z,0
2023-11-14T16:34:01.686Z,0
2023-11-14T16:35:35.000Z,0
2023-11-14T16:36:52.000Z,0
2023-11-14T16:38:08.000Z,0
2023-11-14T16:39:06.467Z,0
2023-11-14T16:40:40.000Z,0
2023-11-14T16:41:56.000Z,0
2023-11-14T16:43:13.000Z,0
2023-11-14T16:44:28.000Z,0
2023-11-14T16:45:44.000Z,0
2023-11-14T16:46:42.654Z,0
2023-11-14T16:48:16.000Z,0
2023-11-14T16:49:33.000Z,0
2023-11-14T16:50:49.000Z,0
2023-11-14T16:52:05.000Z,0
2023-11-14T16:53:21.000Z,0
2023-11-14T16:54:37.821Z,0
2023-11-14T16:55:54.021Z,0
2023-11-14T16:57:10.000Z,0
2023-11-14T16:58:26.411Z,0
2023-11-14T16:59:42.000Z,0
2023-11-14T17:00:58.802Z,0
2023-11-14T17:02:15.000Z,0
2023-11-14T17:03:30.208Z,0
2023-11-14T17:04:46.392Z,0
2023-11-14T17:06:02.724Z,0
2023-11-14T17:07:18.908Z,0
2023-11-14T17:08:35.109Z,0
2023-11-14T17:09:51.000Z,0
2023-11-14T17:11:07.500Z,0
2023-11-14T17:12:23.000Z,0
2023-11-14T17:13:38.912Z,0
2023-11-14T17:14:55.000Z,0
2023-11-14T17:16:11.303Z,0
2023-11-14T17:17:27.498Z,0
2023-11-14T17:18:43.694Z,0
2023-11-14T17:19:59.886Z,0
2023-11-14T17:21:16.085Z,0
2023-11-14T17:22:32.000Z,0
2023-11-14T17:23:48.476Z,0
2023-11-14T17:25:04.662Z,0
2023-11-14T17:26:20.867Z,0
2023-11-14T17:27:37.062Z,0
2023-11-14T17:28:53.258Z,0
2023-11-14T17:30:09.453Z,0
2023-11-14T17:31:25.649Z,0
2023-11-14T17:32:41.000Z,0
2023-11-14T17:33:58.039Z,0
2023-11-14T17:35:14.000Z,0
2023-11-14T17:36:30.430Z,0
2023-11-14T17:37:46.624Z,0
2023-11-14T17:39:02.000Z,0
2023-11-14T17:40:19.016Z,0
2023-11-14T17:41:35.211Z,0
2023-11-14T17:42:51.000Z,0
2023-11-14T17:44:07.000Z,0
2023-11-14T17:45:23.000Z,0
2023-11-14T17:46:39.000Z,0
2023-11-14T17:47:55.000Z,0
2023-11-14T17:49:11.400Z,0
2023-11-14T17:50:09.595Z,0
2023-11-14T17:51:43.000Z,0
2023-11-14T17:52:59.986Z,0
2023-11-14T17:54:16.182Z,0
2023-11-14T17:55:14.377Z,0
2023-11-14T17:56:48.573Z,0
2023-11-14T17:57:46.768Z,0
2023-11-14T17:59:20.000Z,0
2023-11-14T18:00:37.000Z,0
2023-11-14T18:01:53.000Z,0
2023-11-14T18:02:51.549Z,0
2023-11-14T18:04:24.000Z,0
2023-11-14T18:05:40.955Z,0
2023-11-14T18:06:57.000Z,0
2023-11-14T18:07:55.346Z,0
2023-11-14T18:09:29.542Z,0
2023-11-14T18:10:27.737Z,0
2023-11-14T18:12:01.933Z,0
2023-11-14T18:13:18.000Z,0
2023-11-14T18:14:34.000Z,0
2023-11-14T18:15:50.519Z,0
2023-11-14T18:17:06.000Z,0
2023-11-14T18:18:22.000Z,0
2023-11-14T18:19:39.000Z,0
2023-11-14T18:20:54.000Z,0
2023-11-14T18:22:10.000Z,0
2023-11-14T18:23:26.000Z,0
2023-11-14T18:24:42.000Z,0
2023-11-14T18:25:59.099Z,0
2023-11-14T18:27:15.000Z,0